Share

Portland, ND (58274)

10:27 PM CDT on April 24, 2014 (GMT -0500)
NDDOT Buxton I-29 MP 114 (MND012) Elev 930 ft | 47.54 °N, 97.08 °W | Change Station

Current weather conditions updated 55 minutes ago

Overcast
Overcast
42 °F
Feels Like 42 °F
N
1
Wind Variable Wind from North
Gusts 2.0 mph
Sunrise 6:24 AM
Sunset 8:31 PM
Moon Waning Crescent

Tomorrow is forecast to be Much Warmer than today.

Pressure 29.77 in
Visibility 2.0 miles
Clouds Overcast 300 ft
Windchill 42 °F
Dew Point 42 °F
Humidity 98%
Rainfall -999.00 in
Snow Depth Not available.
UV 0 out of 16
Pollen 6.80 out of 12
Air Quality Not available.
Flu Activity Sporadic
METAR KRDR 250258Z AUTO 10001KT 2SM R35/3000FT BR OVC003 05/05 A2973 RMK AO2 VIS 2V2 1/2 SLP080 T00510051 50007

More Conditions Fewer Conditions

Pressure 29.77 in
Visibility 2.0 miles
Clouds Overcast 300 ft
Windchill 42 °F
Dew Point 42 °F
Humidity 98%
Rainfall -999.00 in
Snow Depth Not available.
UV 0 out of 16
Pollen 6.80 out of 12
Air Quality Not available.
Flu Activity Sporadic
METAR KRDR 250258Z AUTO 10001KT 2SM R35/3000FT BR OVC003 05/05 A2973 RMK AO2 VIS 2V2 1/2 SLP080 T00510051 50007

More Conditions Fewer Conditions

10-Day Weather Forecast

Almanac

Astronomy

Apr. 24, 2014 Rise Set
Actual Time 6:24 AM CDT 8:31 PM CDT
Civil Twilight 5:51 AM CDT 9:05 PM CDT
Nautical Twilight 5:09 AM CDT 9:46 PM CDT
Astronomical Twilight 4:23 AM CDT 10:33 PM CDT
Moon 3:57 AM CDT (4/24) 3:29 PM CDT (4/24)
Length of Visible Light 15h 14m
Length of Day
14h 07m
Tomorrow will be 3m 8s longer.
Waning Crescent, 20% of the Moon is Illuminated
Today
Waning Crescent
Apr 29
New
May 6
First Quarter
May 14
Full
May 21
Last Quarter

Today's Extremes

State Highs State Lows

Community

  • Critter
    Critter
  • Jone Runs Falls
    Jone Runs Falls
  • Easter in Shenandoah National Park
    Easter in Shenandoah National Park
  • Sunset at Apalachicola Bay, Florida
    Sunset at Apalachicola Bay, Florida
  • Clouds mov'n in
    Clouds mov'n in

WunderPhotos

Upload Photos

1,704,827 photos uploaded!

WunderBlogs® & News

Nearby

Snow Depth

Station Depth Elevation
No new snow has been reported.

Coastal Water Temperatures

Place Temperature
No Stations Reporting

Earthquake Activity

City Distance Mag. Time & Date
No recent earthquake activity has been reported nearby.
Minimum magnitude displayed is 2.5.

Nearby Weather Stations

Station Location Temp. Windchill Dew Point Humidity Wind Precip. Elev Updated Type
NDDOT Buxton I-29 MP 114, Buxton, ND 42 °F 42 °F 42 °F 98% North  at  1 mph 0.00 in / hr 930 ft 9:32 PM CDT MADIS

Show More Stations Show Fewer Stations

What do you think?

We're not finished. Please let us know what you like, what you don't like, and what you are still missing.